Portada
METAR-TAF:

METAR-TAF

Aeropuertos :

La Gomera, España

Aeropuerto de La Gomera

latitud: 28-01-47N, longitud: 017-12-53W, altitud: 218 m

Observación

El informe se hizo hace 5 horas y 13 minutos, a las 00:00 UTC
Viento 1 kt con dirección variable
Temperatura 20°C
Humedad 83%
Presión 1019 hPa
Visibilidad 10 km o más
sin nubes por debajo de 1500 m y sin presencia de cumulonimbus.

METAR: GCGM 290000Z AUTO VRB01KT CAVOK 20/17 Q1019 RMK R09/VRB01KT ARP/00000KT

Hora: 05:13 (05:13 UTC)

Pronóstico

El informe se hizo hace 3 horas y 13 minutos, a las 02:00 UTC
Pronóstico válido del 29 a las 03 UTC al 30 a las 03 UTC
Viento 5 kt del oeste-suroeste
Visibilidad 10 km o más
sin nubes por debajo de 1500 m y sin presencia de cumulonimbus.

TAF: GCGM 290200Z 2903/3003 25005KT CAVOK TX24/2913Z TN18/2906Z

Observaciones y pronósticos meteorológicos de más de 4000 aeropuertos (mensajes METAR y TAF).

Los puntos amarillos y rojos representan las estaciones disponibles.

Ponga el ratón en el punto deseado para ver el nombre de la estación.

Haga clic para ver las observaciones y los pronósticos meteorológicos.

Para cambiar el mapa : haga clic en los botones verdes con una cruz de color negro para hacer un zoom, en el botón verde con un guión para alejar o en las flechas verdes para mapas adyacentes.


METAR-TAF: